Time;durP1;ratioP1;P1;durP2;ratioP2;P2;SDS_P1;SDS_P2;PMS_P1;PMS_P2;Temp;Humidity;BMP_temperature;BMP_pressure;BME280_temperature;BME280_humidity;BME280_pressure;Samples;Min_cycle;Max_cycle;Signal;HPM_P1;HPM_P2
2022/12/14 00:01:18;;;;;;;3.83;2.13;;;14.90;35.80;;;;;;6182296;23;45265;-72
2022/12/14 00:03:45;;;;;;;3.50;2.20;;;14.90;35.90;;;;;;6182491;23;45206;-72
2022/12/14 00:06:16;;;;;;;4.78;2.70;;;14.90;35.90;;;;;;6182549;23;45428;-72
2022/12/14 00:08:43;;;;;;;4.00;2.35;;;14.90;36.00;;;;;;6182869;23;45552;-73
2022/12/14 00:11:10;;;;;;;3.30;2.13;;;14.90;36.00;;;;;;6181725;23;45333;-72
2022/12/14 00:13:38;;;;;;;3.88;2.60;;;14.90;35.90;;;;;;6182667;23;45261;-72
2022/12/14 00:16:07;;;;;;;3.15;2.47;;;14.90;35.90;;;;;;6182158;23;47488;-72
2022/12/14 00:18:34;;;;;;;3.97;2.25;;;14.90;35.80;;;;;;6181543;23;45986;-71
2022/12/14 00:21:04;;;;;;;3.92;2.47;;;14.90;35.90;;;;;;6181395;23;45397;-72
2022/12/14 00:23:33;;;;;;;3.60;2.13;;;14.90;35.70;;;;;;6182947;23;45527;-72
2022/12/14 00:26:08;;;;;;;4.30;2.78;;;14.90;35.80;;;;;;6182257;23;45441;-72
2022/12/14 00:28:34;;;;;;;4.55;2.67;;;14.90;35.70;;;;;;6182160;23;45309;-72
2022/12/14 00:31:01;;;;;;;5.55;2.70;;;14.90;35.60;;;;;;6182008;23;45197;-72
2022/12/14 00:33:28;;;;;;;4.13;2.42;;;14.90;35.60;;;;;;6181454;23;45288;-72
2022/12/14 00:35:55;;;;;;;4.43;2.60;;;14.90;35.50;;;;;;6182612;23;46439;-72
2022/12/14 00:38:22;;;;;;;3.42;2.33;;;15.00;35.70;;;;;;6181341;23;45345;-73
2022/12/14 00:40:50;;;;;;;4.70;2.67;;;14.90;35.60;;;;;;6181884;23;45638;-71
2022/12/14 00:43:16;;;;;;;3.17;2.10;;;14.90;35.60;;;;;;6182782;23;45253;-73
2022/12/14 00:45:44;;;;;;;3.40;2.47;;;14.90;35.50;;;;;;6181356;23;46286;-72
2022/12/14 00:48:11;;;;;;;3.88;2.65;;;14.90;35.50;;;;;;6182703;23;45193;-71
2022/12/14 00:50:37;;;;;;;3.72;2.10;;;14.90;35.60;;;;;;6182351;23;45250;-71
2022/12/14 00:53:04;;;;;;;4.25;2.20;;;14.90;35.60;;;;;;6183683;23;45384;-71
2022/12/14 00:55:31;;;;;;;3.60;2.42;;;15.00;35.70;;;;;;6183235;23;45584;-72
2022/12/14 00:57:59;;;;;;;3.47;2.30;;;14.90;35.70;;;;;;6183755;23;45435;-73
2022/12/14 01:00:26;;;;;;;3.90;2.30;;;14.90;35.60;;;;;;6183212;23;45259;-72
2022/12/14 01:02:53;;;;;;;5.20;2.55;;;14.90;35.50;;;;;;6183376;23;45283;-72
2022/12/14 01:05:20;;;;;;;2.78;2.00;;;14.90;35.30;;;;;;6182757;23;48577;-72
2022/12/14 01:07:46;;;;;;;2.75;2.03;;;15.00;35.50;;;;;;6183042;23;46407;-72
2022/12/14 01:10:14;;;;;;;3.42;2.10;;;15.00;35.40;;;;;;6183275;23;45412;-72
2022/12/14 01:12:40;;;;;;;3.40;2.38;;;15.00;35.50;;;;;;6183720;23;45371;-72
2022/12/14 01:15:10;;;;;;;4.47;2.47;;;15.00;35.50;;;;;;6182951;23;46288;-72
2022/12/14 01:17:37;;;;;;;2.92;2.25;;;15.00;35.50;;;;;;6182511;23;45221;-73
2022/12/14 01:20:04;;;;;;;4.65;2.50;;;15.00;35.50;;;;;;6185228;23;45532;-72
2022/12/14 01:22:31;;;;;;;3.63;2.00;;;15.00;35.60;;;;;;6184063;23;45169;-72
2022/12/14 01:24:58;;;;;;;2.88;1.90;;;15.00;35.70;;;;;;6183119;23;46597;-72
2022/12/14 01:27:25;;;;;;;3.90;2.20;;;15.00;35.80;;;;;;6183569;23;45205;-72
2022/12/14 01:29:52;;;;;;;3.72;2.00;;;14.90;35.70;;;;;;6183433;23;45391;-73
2022/12/14 01:32:20;;;;;;;3.75;2.00;;;14.90;35.70;;;;;;6182007;23;45412;-72
2022/12/14 01:34:50;;;;;;;4.22;2.40;;;15.00;35.90;;;;;;6183657;23;47906;-71
2022/12/14 01:37:16;;;;;;;3.35;2.30;;;15.00;36.00;;;;;;6182442;23;45460;-72
2022/12/14 01:39:43;;;;;;;3.70;2.30;;;14.90;36.00;;;;;;6184007;23;45432;-73
2022/12/14 01:42:13;;;;;;;3.50;2.10;;;14.90;35.90;;;;;;6182498;23;45515;-72
2022/12/14 01:45:04;;;;;;;2.95;1.88;;;14.90;35.80;;;;;;6183122;23;45337;-72
2022/12/14 01:47:39;;;;;;;3.75;2.35;;;14.90;35.90;;;;;;6154054;23;45872;-72
2022/12/14 01:50:14;;;;;;;3.88;2.05;;;15.00;35.90;;;;;;6182749;23;45281;-72
2022/12/14 01:52:43;;;;;;;3.38;2.15;;;15.00;36.00;;;;;;6183848;23;45507;-72
2022/12/14 01:55:14;;;;;;;3.38;1.77;;;15.00;35.90;;;;;;6182680;23;48949;-72
2022/12/14 01:57:45;;;;;;;3.30;2.10;;;14.90;35.90;;;;;;6183288;23;45316;-72
2022/12/14 02:00:13;;;;;;;3.55;2.10;;;14.90;35.90;;;;;;6182175;23;45427;-72
2022/12/14 02:02:45;;;;;;;3.08;2.00;;;14.90;35.80;;;;;;6183724;23;45558;-72
2022/12/14 02:05:14;;;;;;;3.50;2.03;;;15.00;35.90;;;;;;6182629;23;45430;-72
2022/12/14 02:07:43;;;;;;;3.33;2.10;;;14.90;35.80;;;;;;6183263;23;45882;-72
2022/12/14 02:10:10;;;;;;;3.40;2.30;;;14.90;35.60;;;;;;6183367;23;45363;-72
2022/12/14 02:12:42;;;;;;;3.38;1.98;;;14.90;35.40;;;;;;6183130;23;45341;-72
2022/12/14 02:15:10;;;;;;;3.90;2.35;;;15.00;35.50;;;;;;6183301;23;45433;-71
2022/12/14 02:17:37;;;;;;;2.45;1.80;;;14.90;35.50;;;;;;6181442;23;45341;-72
2022/12/14 02:20:07;;;;;;;2.72;1.92;;;14.90;35.30;;;;;;6183031;23;45193;-71
2022/12/14 02:23:03;;;;;;;3.92;2.30;;;14.90;34.60;;;;;;6183059;23;45249;-71
2022/12/14 02:25:54;;;;;;;3.88;2.47;;;14.90;34.10;;;;;;6183017;23;45298;-72
2022/12/14 02:28:43;;;;;;;3.85;2.28;;;14.90;33.90;;;;;;6183255;23;45394;-72
2022/12/14 02:31:18;;;;;;;3.45;2.10;;;14.90;33.50;;;;;;6182634;23;45344;-71
2022/12/14 02:33:51;;;;;;;3.17;2.20;;;14.80;33.30;;;;;;6182379;23;45442;-71
2022/12/14 02:36:25;;;;;;;2.90;2.00;;;14.90;33.60;;;;;;6182330;23;45434;-71
2022/12/14 02:39:03;;;;;;;3.13;1.98;;;14.90;34.30;;;;;;6183406;23;45237;-71
2022/12/14 02:41:38;;;;;;;3.08;2.00;;;14.90;34.60;;;;;;6182569;23;45346;-71
2022/12/14 02:44:15;;;;;;;3.67;2.10;;;14.90;34.80;;;;;;6183505;23;45524;-71
2022/12/14 02:46:51;;;;;;;2.95;1.95;;;14.90;35.00;;;;;;6182475;23;46522;-71
2022/12/14 02:49:31;;;;;;;2.88;1.95;;;14.90;35.20;;;;;;6183470;23;45421;-71
2022/12/14 02:52:04;;;;;;;3.95;2.00;;;14.90;35.30;;;;;;6182155;23;45302;-71
2022/12/14 02:54:38;;;;;;;2.88;1.90;;;14.90;35.30;;;;;;6183619;23;45421;-71
2022/12/14 02:57:12;;;;;;;4.25;2.25;;;14.90;35.30;;;;;;6182820;23;46384;-72
2022/12/14 02:59:40;;;;;;;3.97;2.45;;;14.90;35.40;;;;;;6182764;23;45296;-71
2022/12/14 03:02:11;;;;;;;2.75;1.92;;;14.90;35.50;;;;;;6182203;23;45200;-71
2022/12/14 03:04:44;;;;;;;2.88;2.05;;;14.90;35.40;;;;;;6182645;23;45269;-71
2022/12/14 03:07:36;;;;;;;3.30;1.80;;;14.90;35.60;;;;;;6182342;23;46630;-71
2022/12/14 03:10:11;;;;;;;2.90;1.90;;;14.90;35.60;;;;;;6182307;23;45256;-72
2022/12/14 03:12:41;;;;;;;3.45;2.08;;;14.90;36.90;;;;;;6182285;23;45345;-72
2022/12/14 03:15:10;;;;;;;3.83;2.08;;;14.90;35.50;;;;;;6186034;23;45330;-71
2022/12/14 03:17:40;;;;;;;3.50;2.00;;;14.90;35.50;;;;;;6180717;23;45361;-71
2022/12/14 03:20:11;;;;;;;3.03;1.70;;;14.90;35.50;;;;;;6182588;23;45280;-71
2022/12/14 03:22:40;;;;;;;2.90;2.13;;;15.00;35.50;;;;;;6182642;23;45337;-71
2022/12/14 03:25:12;;;;;;;2.97;1.88;;;15.00;35.50;;;;;;6182971;23;45261;-71
2022/12/14 03:27:44;;;;;;;2.97;2.28;;;15.00;35.50;;;;;;6182880;23;46259;-71
2022/12/14 03:30:13;;;;;;;3.40;1.80;;;15.00;35.50;;;;;;6181702;23;45233;-70
2022/12/14 03:32:46;;;;;;;3.30;1.88;;;15.00;35.50;;;;;;6181412;23;45239;-71
2022/12/14 03:35:16;;;;;;;3.13;1.83;;;15.00;35.40;;;;;;6182588;23;45639;-71
2022/12/14 03:37:47;;;;;;;2.60;1.60;;;15.00;35.40;;;;;;6182536;23;45438;-71
2022/12/14 03:40:15;;;;;;;3.38;2.20;;;15.00;35.40;;;;;;6181756;23;45217;-72
2022/12/14 03:42:54;;;;;;;4.00;1.83;;;15.00;35.40;;;;;;6182587;23;45280;-71
2022/12/14 03:45:26;;;;;;;2.35;1.70;;;14.90;35.30;;;;;;6182310;23;45193;-71
2022/12/14 03:48:01;;;;;;;3.35;1.80;;;14.90;35.20;;;;;;6182511;23;45415;-71
2022/12/14 03:50:34;;;;;;;3.17;2.00;;;14.90;35.30;;;;;;6182317;23;45337;-71
2022/12/14 03:53:07;;;;;;;3.28;2.00;;;14.90;35.30;;;;;;6181994;23;45280;-71
2022/12/14 03:55:41;;;;;;;3.67;1.90;;;14.90;35.30;;;;;;6183041;23;45459;-71
2022/12/14 03:58:32;;;;;;;2.47;1.88;;;15.00;35.40;;;;;;6182537;23;46402;-72
2022/12/14 04:01:06;;;;;;;2.65;2.00;;;15.00;35.40;;;;;;6182193;23;45296;-71
2022/12/14 04:03:45;;;;;;;2.92;1.98;;;15.00;35.40;;;;;;6181067;23;45395;-71
2022/12/14 04:06:19;;;;;;;3.72;2.30;;;15.00;35.40;;;;;;6181754;23;45336;-71
2022/12/14 04:08:52;;;;;;;2.88;1.90;;;15.00;35.40;;;;;;6182644;23;47178;-71
2022/12/14 04:19:49;;;;;;;3.17;2.20;;;15.00;34.30;;;;;;6182378;23;45449;-73
2022/12/14 04:22:19;;;;;;;3.15;2.00;;;14.90;33.80;;;;;;6181660;23;45269;-71
2022/12/14 04:27:39;;;;;;;2.10;1.70;;;14.90;33.60;;;;;;6184158;23;45241;-72
2022/12/14 04:30:08;;;;;;;2.95;2.13;;;14.90;33.40;;;;;;6182697;23;46542;-73
2022/12/14 04:32:38;;;;;;;4.50;2.10;;;14.90;33.30;;;;;;6181551;23;45226;-71
2022/12/14 04:35:13;;;;;;;2.95;2.08;;;14.90;33.20;;;;;;6183445;23;45358;-72
2022/12/14 04:37:43;;;;;;;3.75;2.20;;;14.80;32.90;;;;;;6183657;22;45630;-72
2022/12/14 04:40:14;;;;;;;4.38;2.58;;;14.80;32.70;;;;;;6183168;23;46293;-71
2022/12/14 04:42:46;;;;;;;3.72;2.53;;;14.90;32.70;;;;;;6183222;23;45949;-71
2022/12/14 04:45:18;;;;;;;3.33;2.10;;;14.80;32.60;;;;;;6183552;23;45439;-71
2022/12/14 04:47:54;;;;;;;3.00;1.95;;;14.90;32.70;;;;;;6183402;23;45221;-71
2022/12/14 04:50:29;;;;;;;3.55;1.63;;;14.90;32.60;;;;;;6182749;23;46739;-72
2022/12/14 04:53:02;;;;;;;4.00;2.15;;;14.80;32.40;;;;;;6183646;23;45469;-71
2022/12/14 04:55:35;;;;;;;3.92;2.33;;;14.80;32.30;;;;;;6183919;23;45337;-71
2022/12/14 04:58:08;;;;;;;3.10;2.08;;;14.80;32.30;;;;;;6184361;23;45182;-72
2022/12/14 05:00:41;;;;;;;4.38;2.30;;;14.80;32.30;;;;;;6182449;23;45280;-71
2022/12/14 05:03:21;;;;;;;3.58;2.10;;;14.80;32.20;;;;;;6182794;23;45276;-71
2022/12/14 05:05:58;;;;;;;3.20;1.90;;;14.80;32.20;;;;;;6183193;23;45169;-71
2022/12/14 05:08:52;;;;;;;3.90;2.05;;;14.80;33.30;;;;;;6186650;23;45165;-72
2022/12/14 05:11:25;;;;;;;3.42;2.38;;;14.80;32.00;;;;;;6181820;23;47242;-72
2022/12/14 05:13:52;;;;;;;2.50;1.90;;;14.80;32.10;;;;;;6182526;23;45297;-71
2022/12/14 05:16:21;;;;;;;3.05;2.15;;;14.80;32.20;;;;;;6181543;23;45322;-73
2022/12/14 05:18:49;;;;;;;3.92;2.25;;;14.80;32.00;;;;;;6181504;23;45389;-72
2022/12/14 05:23:59;;;;;;;3.10;2.08;;;14.80;31.90;;;;;;6181824;23;45305;-71
2022/12/14 05:26:26;;;;;;;3.50;1.95;;;14.80;31.80;;;;;;6183601;23;45440;-71
2022/12/14 05:28:53;;;;;;;3.08;2.30;;;14.80;32.20;;;;;;6183197;23;45232;-71
2022/12/14 05:31:20;;;;;;;3.25;2.30;;;14.80;32.10;;;;;;6182687;23;48003;-72
2022/12/14 05:33:46;;;;;;;4.07;2.55;;;14.80;31.90;;;;;;6180935;23;45367;-71
2022/12/14 05:36:13;;;;;;;4.13;2.20;;;14.90;32.30;;;;;;6182188;23;45422;-71
2022/12/14 05:38:41;;;;;;;3.88;2.30;;;14.80;31.70;;;;;;6183020;23;45363;-71
2022/12/14 05:41:08;;;;;;;4.30;2.20;;;14.80;31.80;;;;;;6182081;23;47067;-71
2022/12/14 05:43:36;;;;;;;3.55;2.15;;;14.80;31.70;;;;;;6183090;23;45282;-71
2022/12/14 05:46:04;;;;;;;4.13;2.10;;;14.80;31.70;;;;;;6182824;23;45269;-71
2022/12/14 05:48:33;;;;;;;3.83;2.35;;;14.80;31.70;;;;;;6182982;23;45500;-71
2022/12/14 05:51:06;;;;;;;5.20;2.85;;;14.80;31.70;;;;;;6182373;23;47403;-71
2022/12/14 05:53:32;;;;;;;3.78;2.63;;;14.80;31.60;;;;;;6182684;23;45413;-71
2022/12/14 05:56:01;;;;;;;3.90;2.40;;;14.80;31.70;;;;;;6183655;23;45297;-71
2022/12/14 05:58:28;;;;;;;3.80;2.30;;;14.80;31.60;;;;;;6183218;23;45382;-70
2022/12/14 06:00:59;;;;;;;5.97;2.40;;;14.80;31.50;;;;;;6182262;23;48290;-70
2022/12/14 06:03:25;;;;;;;4.10;2.30;;;14.80;31.50;;;;;;6183425;23;46047;-72
2022/12/14 06:05:52;;;;;;;3.72;2.50;;;14.80;31.30;;;;;;6182695;23;45281;-71
2022/12/14 06:08:20;;;;;;;5.13;2.58;;;14.80;31.30;;;;;;6183772;23;45423;-71
2022/12/14 06:10:47;;;;;;;4.28;2.35;;;14.80;31.30;;;;;;6181587;23;47290;-71
2022/12/14 06:13:15;;;;;;;6.75;2.63;;;14.80;31.40;;;;;;6183302;23;45400;-73
2022/12/14 06:15:41;;;;;;;3.75;2.50;;;14.80;31.30;;;;;;6182112;23;45258;-72
2022/12/14 06:18:08;;;;;;;5.32;2.63;;;14.80;31.60;;;;;;6179373;23;45514;-73
2022/12/14 06:20:35;;;;;;;4.15;2.35;;;14.80;31.40;;;;;;6181251;23;46580;-73
2022/12/14 06:23:01;;;;;;;3.72;2.40;;;14.80;31.40;;;;;;6181090;23;45312;-72
2022/12/14 06:25:28;;;;;;;3.95;2.80;;;14.70;31.20;;;;;;6181452;23;45281;-72
2022/12/14 06:27:55;;;;;;;4.67;2.57;;;14.80;31.40;;;;;;6181556;23;45360;-73
2022/12/14 06:30:23;;;;;;;3.28;2.40;;;14.70;31.20;;;;;;6181021;23;47636;-72
2022/12/14 06:32:50;;;;;;;3.63;2.50;;;14.80;31.30;;;;;;6180251;23;45256;-73
2022/12/14 06:35:18;;;;;;;6.05;2.67;;;14.70;31.20;;;;;;6181181;23;45217;-73
2022/12/14 06:37:45;;;;;;;4.32;2.60;;;14.70;31.40;;;;;;6181937;23;45408;-72
2022/12/14 06:40:12;;;;;;;3.20;2.28;;;14.70;31.30;;;;;;6182596;23;46815;-73
2022/12/14 06:42:38;;;;;;;3.03;2.13;;;14.70;31.30;;;;;;6181746;23;45418;-71
2022/12/14 06:45:06;;;;;;;3.75;2.50;;;14.70;31.70;;;;;;6182731;23;45292;-72
2022/12/14 06:47:34;;;;;;;5.32;2.42;;;14.80;32.20;;;;;;6182537;23;45311;-72
2022/12/14 06:50:01;;;;;;;3.17;2.33;;;14.80;31.90;;;;;;6182986;23;46627;-72
2022/12/14 06:52:28;;;;;;;3.40;2.25;;;14.80;31.80;;;;;;6182524;23;46060;-72
2022/12/14 06:54:55;;;;;;;3.33;2.13;;;14.80;31.60;;;;;;6182574;23;45309;-73
2022/12/14 06:57:22;;;;;;;5.80;3.00;;;14.80;31.60;;;;;;6180520;23;45210;-72
2022/12/14 06:59:48;;;;;;;3.78;2.20;;;14.80;31.50;;;;;;6182746;23;45209;-72
2022/12/14 07:02:15;;;;;;;4.78;2.70;;;14.80;31.50;;;;;;6185853;23;45232;-73
2022/12/14 07:04:43;;;;;;;4.85;2.33;;;14.70;31.60;;;;;;6183195;23;45571;-70
2022/12/14 07:07:10;;;;;;;3.03;2.20;;;14.70;31.50;;;;;;6182324;23;45371;-72
2022/12/14 07:09:38;;;;;;;5.70;2.60;;;14.70;32.00;;;;;;6182857;23;46539;-72
2022/12/14 07:12:05;;;;;;;4.63;2.58;;;14.70;31.80;;;;;;6179547;23;45454;-72
2022/12/14 07:14:32;;;;;;;5.72;2.00;;;14.70;31.80;;;;;;6181052;23;45246;-72
2022/12/14 07:16:59;;;;;;;4.88;2.28;;;14.70;31.80;;;;;;6182669;23;45294;-72
2022/12/14 07:19:25;;;;;;;5.15;2.35;;;14.80;32.00;;;;;;6182257;23;46241;-72
2022/12/14 07:21:54;;;;;;;4.15;2.40;;;14.80;31.80;;;;;;6182432;23;45224;-72
2022/12/14 07:24:20;;;;;;;3.53;2.30;;;14.80;31.80;;;;;;6180846;23;45268;-72
2022/12/14 07:26:47;;;;;;;3.38;2.30;;;14.80;31.80;;;;;;6182922;23;45258;-72
2022/12/14 07:29:16;;;;;;;3.60;2.33;;;14.80;31.80;;;;;;6180758;23;45395;-72
2022/12/14 07:31:42;;;;;;;3.13;2.13;;;14.80;31.70;;;;;;6181283;23;45238;-72
2022/12/14 07:34:11;;;;;;;4.85;2.20;;;14.80;31.60;;;;;;6180683;23;45285;-72
2022/12/14 07:36:41;;;;;;;3.28;2.08;;;14.80;31.60;;;;;;6180454;22;45337;-75
2022/12/14 07:39:13;;;;;;;4.15;2.50;;;14.80;32.40;;;;;;6181133;23;47428;-71
2022/12/14 07:41:40;;;;;;;5.35;2.63;;;14.80;32.00;;;;;;6181880;23;45471;-71
2022/12/14 07:44:09;;;;;;;3.70;2.42;;;14.80;31.70;;;;;;6180770;23;45446;-72
2022/12/14 07:46:36;;;;;;;4.22;2.40;;;14.80;32.00;;;;;;6182431;23;45355;-71
2022/12/14 07:49:03;;;;;;;4.28;2.30;;;14.80;31.60;;;;;;6182455;23;47688;-71
2022/12/14 07:51:32;;;;;;;4.05;2.50;;;14.80;31.60;;;;;;6180315;23;45292;-71
2022/12/14 07:54:00;;;;;;;4.28;2.30;;;14.80;31.70;;;;;;6179952;23;45389;-71
2022/12/14 07:56:31;;;;;;;3.50;1.98;;;14.70;31.50;;;;;;6179018;23;45385;-70
2022/12/14 07:58:59;;;;;;;4.05;2.35;;;14.70;31.50;;;;;;6178542;23;46045;-71
2022/12/14 08:01:28;;;;;;;3.83;2.50;;;14.70;31.50;;;;;;6179224;23;45233;-72
2022/12/14 08:03:56;;;;;;;5.38;2.40;;;14.80;31.50;;;;;;6178033;23;45455;-71
2022/12/14 08:06:27;;;;;;;6.15;2.53;;;14.80;31.50;;;;;;6180171;23;45184;-71
2022/12/14 08:08:55;;;;;;;4.95;2.85;;;14.80;31.50;;;;;;6180129;23;45444;-70
2022/12/14 08:11:23;;;;;;;4.35;2.40;;;14.80;31.50;;;;;;6180943;23;46114;-70
2022/12/14 08:13:54;;;;;;;4.68;2.38;;;14.80;31.50;;;;;;6182621;23;45313;-71
2022/12/14 08:16:20;;;;;;;3.92;2.30;;;14.80;31.40;;;;;;6181441;23;45314;-70
2022/12/14 08:18:47;;;;;;;3.45;2.08;;;14.80;31.50;;;;;;6182082;23;46525;-70
2022/12/14 08:21:16;;;;;;;4.00;2.47;;;14.80;31.40;;;;;;6181170;23;45321;-71
2022/12/14 08:23:43;;;;;;;4.72;2.72;;;14.80;31.30;;;;;;6182116;23;45396;-70
2022/12/14 08:26:09;;;;;;;4.72;2.83;;;14.80;31.20;;;;;;6182546;23;45244;-70
2022/12/14 08:28:36;;;;;;;5.00;2.60;;;14.80;31.20;;;;;;6181615;23;47764;-70
2022/12/14 08:31:06;;;;;;;4.95;2.53;;;14.80;31.30;;;;;;6181193;23;45442;-70
2022/12/14 08:33:34;;;;;;;4.53;2.67;;;14.80;31.30;;;;;;6182011;23;45348;-71
2022/12/14 08:36:06;;;;;;;3.65;2.17;;;14.80;31.40;;;;;;6181198;23;45307;-70
2022/12/14 08:38:32;;;;;;;3.92;2.38;;;14.80;31.30;;;;;;6181494;23;45315;-70
2022/12/14 08:41:02;;;;;;;4.22;2.95;;;14.80;32.50;;;;;;6180419;23;45381;-70
2022/12/14 08:43:29;;;;;;;5.55;2.63;;;14.80;31.30;;;;;;6181752;23;45294;-70
2022/12/14 08:45:55;;;;;;;4.07;2.33;;;14.70;31.10;;;;;;6181570;23;45298;-71
2022/12/14 08:48:24;;;;;;;5.22;2.03;;;14.80;31.20;;;;;;6181177;23;46431;-71
2022/12/14 08:50:51;;;;;;;3.95;2.28;;;14.80;31.20;;;;;;6181185;23;45299;-70
2022/12/14 08:53:18;;;;;;;4.47;2.60;;;14.80;31.30;;;;;;6180011;23;45343;-71
2022/12/14 08:55:45;;;;;;;4.70;2.58;;;14.80;31.20;;;;;;6184128;23;45168;-71
2022/12/14 08:58:12;;;;;;;3.72;2.38;;;14.80;31.20;;;;;;6181846;23;46342;-71
2022/12/14 09:00:40;;;;;;;3.42;2.17;;;14.80;31.10;;;;;;6179297;23;45304;-71
2022/12/14 09:03:07;;;;;;;4.18;2.35;;;14.80;31.10;;;;;;6181191;23;45445;-71
2022/12/14 09:05:35;;;;;;;4.18;2.60;;;14.80;31.10;;;;;;6181017;23;45180;-70
2022/12/14 09:08:02;;;;;;;3.35;2.40;;;14.80;31.10;;;;;;6181364;23;47986;-70
2022/12/14 09:10:29;;;;;;;4.45;2.70;;;14.80;31.10;;;;;;6182327;23;45264;-71
2022/12/14 09:12:55;;;;;;;4.25;2.60;;;14.80;31.10;;;;;;6181734;23;45288;-70
2022/12/14 09:15:22;;;;;;;4.90;2.80;;;14.80;31.10;;;;;;6182929;23;45257;-71
2022/12/14 09:17:49;;;;;;;5.25;2.58;;;14.80;31.10;;;;;;6182288;23;46525;-71
2022/12/14 09:20:17;;;;;;;4.10;2.60;;;14.80;31.10;;;;;;6183015;23;45239;-71
2022/12/14 09:22:46;;;;;;;3.13;2.17;;;14.70;31.00;;;;;;6182594;23;45464;-71
2022/12/14 09:25:12;;;;;;;3.50;2.38;;;14.70;31.10;;;;;;6182333;23;45441;-70
2022/12/14 09:27:39;;;;;;;4.47;2.58;;;14.70;31.10;;;;;;6181739;23;46439;-71
2022/12/14 09:30:07;;;;;;;4.05;2.55;;;14.70;31.10;;;;;;6180726;23;45206;-71
2022/12/14 09:32:33;;;;;;;5.10;3.03;;;14.80;31.30;;;;;;6182008;23;45353;-71
2022/12/14 09:35:00;;;;;;;3.95;2.40;;;14.80;31.20;;;;;;6183632;23;45241;-70
2022/12/14 09:37:27;;;;;;;5.03;2.70;;;14.80;31.30;;;;;;6180611;23;46986;-71
2022/12/14 09:39:55;;;;;;;3.88;2.38;;;14.80;31.20;;;;;;6182858;23;45356;-70
2022/12/14 09:42:48;;;;;;;4.30;2.70;;;14.80;31.20;;;;;;6181883;23;45240;-70
2022/12/14 09:45:21;;;;;;;5.60;2.88;;;14.80;31.30;;;;;;6182467;23;45154;-71
2022/12/14 09:47:56;;;;;;;4.07;2.53;;;14.80;31.30;;;;;;6182960;23;45641;-71
2022/12/14 09:50:24;;;;;;;3.70;2.50;;;14.80;31.40;;;;;;6182364;23;45389;-71
2022/12/14 09:52:53;;;;;;;4.00;2.38;;;14.80;31.20;;;;;;6185563;23;45189;-70
2022/12/14 09:55:26;;;;;;;5.38;2.65;;;14.80;31.20;;;;;;6181680;23;45633;-70
2022/12/14 09:57:58;;;;;;;4.95;2.72;;;14.70;31.10;;;;;;6182915;23;45438;-71
2022/12/14 10:00:25;;;;;;;5.50;2.80;;;14.70;31.20;;;;;;6181925;23;45193;-71
2022/12/14 10:03:19;;;;;;;3.95;2.35;;;14.70;31.10;;;;;;6181239;23;45321;-71
2022/12/14 10:06:00;;;;;;;5.47;2.72;;;14.70;31.20;;;;;;6180771;23;45197;-70
2022/12/14 10:08:35;;;;;;;4.35;2.75;;;14.70;31.20;;;;;;6181378;23;47942;-71
2022/12/14 10:11:10;;;;;;;4.40;2.60;;;14.70;32.50;;;;;;6182030;23;45361;-72
2022/12/14 10:13:51;;;;;;;3.88;2.60;;;14.80;31.40;;;;;;6182444;23;45289;-72
2022/12/14 10:16:25;;;;;;;5.13;2.63;;;14.80;31.30;;;;;;6182611;23;45491;-71
2022/12/14 10:19:08;;;;;;;4.03;2.55;;;14.80;31.30;;;;;;6183297;23;47231;-70
2022/12/14 10:21:46;;;;;;;4.22;2.78;;;14.80;31.40;;;;;;6181321;23;45342;-70
2022/12/14 10:24:17;;;;;;;5.03;3.03;;;14.80;31.30;;;;;;6182739;23;45569;-68
2022/12/14 10:26:49;;;;;;;31.88;4.28;;;14.80;31.60;;;;;;6182669;23;45218;-72
2022/12/14 10:29:22;;;;;;;15.32;3.35;;;14.90;34.30;;;;;;6180973;23;46530;-73
2022/12/14 10:31:57;;;;;;;7.30;3.05;;;14.90;32.20;;;;;;6182095;23;46208;-72
2022/12/14 10:34:28;;;;;;;7.70;3.08;;;14.80;31.90;;;;;;6182966;23;45364;-73
2022/12/14 10:37:01;;;;;;;4.45;2.70;;;14.80;31.80;;;;;;6183031;23;45376;-72
2022/12/14 10:39:37;;;;;;;9.57;3.08;;;14.80;31.60;;;;;;6182746;23;46589;-74
2022/12/14 10:42:15;;;;;;;4.88;2.85;;;14.80;31.60;;;;;;6181223;23;45181;-72
2022/12/14 10:44:49;;;;;;;6.45;3.25;;;14.70;31.40;;;;;;6182221;23;45189;-73
2022/12/14 10:47:25;;;;;;;5.10;2.70;;;14.70;31.50;;;;;;6182980;23;45145;-71
2022/12/14 10:49:57;;;;;;;5.22;2.63;;;14.80;31.50;;;;;;6183476;23;46431;-72
2022/12/14 10:52:28;;;;;;;4.82;2.55;;;14.70;31.30;;;;;;6181889;23;45802;-73
2022/12/14 10:54:58;;;;;;;4.38;2.65;;;14.70;31.20;;;;;;6183591;23;45339;-71
2022/12/14 10:57:27;;;;;;;8.98;2.85;;;14.80;31.30;;;;;;6183123;23;45200;-71
2022/12/14 10:59:55;;;;;;;5.68;3.17;;;14.80;31.20;;;;;;6180779;23;48337;-72
2022/12/14 11:02:24;;;;;;;6.05;3.00;;;14.80;31.20;;;;;;6182381;23;45204;-72
2022/12/14 11:04:53;;;;;;;5.22;2.85;;;14.80;31.20;;;;;;6182428;23;45276;-72
2022/12/14 11:07:22;;;;;;;4.47;2.90;;;14.70;31.10;;;;;;6181772;23;45379;-71
2022/12/14 11:09:49;;;;;;;6.20;3.30;;;14.70;31.10;;;;;;6181514;23;47072;-72
2022/12/14 11:12:19;;;;;;;5.32;3.30;;;14.70;31.20;;;;;;6180626;23;45233;-72
2022/12/14 11:14:56;;;;;;;5.22;2.80;;;14.70;31.20;;;;;;6182889;23;45320;-71
2022/12/14 11:17:36;;;;;;;5.07;2.78;;;14.70;31.20;;;;;;6181404;23;45353;-71
2022/12/14 11:20:19;;;;;;;4.93;3.08;;;14.70;31.20;;;;;;6181379;23;47249;-72
2022/12/14 11:22:48;;;;;;;5.47;2.83;;;14.70;31.30;;;;;;6177088;23;45221;-71
2022/12/14 11:25:38;;;;;;;8.05;3.15;;;14.70;31.40;;;;;;6183367;23;45213;-72
2022/12/14 11:28:25;;;;;;;4.70;2.85;;;14.80;31.40;;;;;;6175672;23;45220;-72
2022/12/14 11:31:01;;;;;;;6.03;3.28;;;14.80;31.40;;;;;;6181872;23;48108;-72
2022/12/14 11:33:34;;;;;;;4.40;2.70;;;14.80;31.30;;;;;;6182234;23;45328;-72
2022/12/14 11:36:01;;;;;;;4.85;2.78;;;14.90;31.40;;;;;;6181859;23;45269;-71
2022/12/14 11:38:29;;;;;;;3.97;2.55;;;14.90;31.40;;;;;;6182739;22;45667;-71
2022/12/14 11:40:56;;;;;;;6.20;3.35;;;14.90;31.40;;;;;;6180517;23;45361;-73
2022/12/14 11:43:27;;;;;;;5.10;2.80;;;14.90;31.40;;;;;;6182364;23;45293;-73
2022/12/14 11:45:57;;;;;;;5.38;2.92;;;14.90;31.40;;;;;;6185490;23;45278;-72
2022/12/14 11:48:26;;;;;;;6.18;3.00;;;14.90;31.50;;;;;;6182487;23;45257;-72
2022/12/14 11:50:56;;;;;;;4.40;2.65;;;14.90;31.50;;;;;;6181779;23;47025;-72
2022/12/14 11:53:23;;;;;;;5.55;2.88;;;14.90;31.60;;;;;;6181016;23;45286;-71
2022/12/14 11:55:57;;;;;;;7.13;3.15;;;14.90;31.60;;;;;;6180856;23;45192;-72
2022/12/14 11:58:29;;;;;;;4.20;2.97;;;14.80;31.80;;;;;;6181892;23;45340;-72
2022/12/14 12:01:02;;;;;;;6.47;3.38;;;14.90;32.80;;;;;;6180918;23;47955;-72
2022/12/14 12:03:33;;;;;;;5.28;3.05;;;14.90;32.40;;;;;;6181648;23;45288;-72
2022/12/14 12:06:04;;;;;;;5.75;2.70;;;14.90;32.20;;;;;;6180136;23;45387;-72
2022/12/14 12:08:34;;;;;;;5.20;3.60;;;14.90;32.20;;;;;;6180882;23;45379;-71
2022/12/14 12:11:05;;;;;;;6.82;3.00;;;14.90;32.10;;;;;;6181784;23;45234;-74
2022/12/14 12:13:37;;;;;;;5.35;3.50;;;15.00;32.20;;;;;;6180548;23;45265;-71
2022/12/14 12:16:12;;;;;;;5.63;3.10;;;14.90;32.10;;;;;;6182044;23;45250;-71
2022/12/14 12:18:44;;;;;;;5.15;2.90;;;15.00;32.20;;;;;;6182755;23;45332;-71
2022/12/14 12:21:16;;;;;;;5.20;3.10;;;14.90;32.10;;;;;;6181653;23;45695;-72
2022/12/14 12:23:49;;;;;;;4.50;2.95;;;14.90;32.10;;;;;;6182711;23;45384;-72
2022/12/14 12:26:21;;;;;;;5.75;2.90;;;15.00;32.10;;;;;;6182008;23;45397;-71
2022/12/14 12:28:53;;;;;;;6.60;3.42;;;14.90;32.00;;;;;;6182932;23;45362;-71
2022/12/14 12:31:29;;;;;;;4.70;3.38;;;14.90;32.20;;;;;;6180971;23;46286;-72
2022/12/14 12:34:01;;;;;;;5.45;3.38;;;14.90;32.20;;;;;;6182338;23;45214;-72
2022/12/14 12:36:31;;;;;;;4.78;2.95;;;14.90;32.10;;;;;;6181949;23;45416;-72
2022/12/14 12:39:06;;;;;;;5.82;2.78;;;14.90;32.10;;;;;;6181780;23;45402;-72
2022/12/14 12:41:41;;;;;;;7.80;3.55;;;14.90;32.10;;;;;;6179797;23;46713;-73
2022/12/14 12:44:23;;;;;;;6.07;3.45;;;14.90;32.10;;;;;;6182080;23;45402;-73
2022/12/14 12:47:02;;;;;;;4.97;3.22;;;14.90;32.20;;;;;;6183515;23;45344;-72
2022/12/14 12:49:29;;;;;;;6.50;3.25;;;14.90;32.10;;;;;;6184036;23;45272;-72
2022/12/14 12:52:01;;;;;;;7.50;3.30;;;14.90;32.10;;;;;;6181888;23;47474;-71
2022/12/14 12:54:32;;;;;;;5.47;3.58;;;14.90;32.10;;;;;;6183622;23;45298;-72
2022/12/14 12:57:00;;;;;;;6.45;3.35;;;15.00;32.10;;;;;;6183172;23;45348;-72
2022/12/14 12:59:37;;;;;;;7.35;3.70;;;14.90;32.00;;;;;;6183218;23;45173;-72
2022/12/14 13:02:20;;;;;;;6.43;3.50;;;14.90;32.10;;;;;;6183091;23;47625;-72
2022/12/14 13:04:50;;;;;;;5.90;3.33;;;14.90;32.10;;;;;;6183104;23;45413;-71
2022/12/14 13:07:26;;;;;;;5.50;3.13;;;14.90;32.10;;;;;;6182207;23;45338;-72
2022/12/14 13:09:58;;;;;;;5.95;3.60;;;14.90;32.10;;;;;;6182818;23;45499;-71
2022/12/14 13:12:31;;;;;;;6.43;3.38;;;14.90;32.20;;;;;;6182794;23;46578;-72
2022/12/14 13:15:01;;;;;;;8.32;4.20;;;14.90;32.20;;;;;;6182830;23;45225;-74
2022/12/14 13:17:37;;;;;;;14.75;3.72;;;14.90;34.70;;;;;;6183946;23;45364;-70